Time;durP1;ratioP1;P1;durP2;ratioP2;P2;SDS_P1;SDS_P2;PMS_P1;PMS_P2;Temp;Humidity;BMP_temperature;BMP_pressure;BME280_temperature;BME280_humidity;BME280_pressure;Samples;Min_cycle;Max_cycle;Signal;HPM_P1;HPM_P2
2022/03/17 00:02:07;;;;;;;231.52;92.60;;;;;;;;;;5020900;28;20054;-74
2022/03/17 00:04:34;;;;;;;227.13;94.10;;;;;;;;;;5017858;28;20400;-75
2022/03/17 00:07:00;;;;;;;233.77;97.05;;;;;;;;;;5023329;28;20045;-75
2022/03/17 00:09:27;;;;;;;216.63;92.43;;;;;;;;;;5033172;28;20053;-73
2022/03/17 00:11:54;;;;;;;215.93;94.43;;;;;;;;;;5032978;28;20072;-74
2022/03/17 00:14:21;;;;;;;232.13;91.88;;;;;;;;;;5023123;28;20072;-74
2022/03/17 00:16:47;;;;;;;231.48;97.68;;;;;;;;;;5029156;28;20140;-74
2022/03/17 00:19:14;;;;;;;227.57;92.60;;;;;;;;;;5035766;28;20021;-75
2022/03/17 00:21:40;;;;;;;246.32;97.95;;;;;;;;;;5026733;28;20520;-75
2022/03/17 00:24:09;;;;;;;235.40;98.63;;;;;;;;;;5028492;28;20044;-74
2022/03/17 00:26:37;;;;;;;225.38;94.28;;;;;;;;;;5025720;28;20041;-74
2022/03/17 00:29:06;;;;;;;223.07;93.20;;;;;;;;;;5034104;28;20376;-74
2022/03/17 00:31:32;;;;;;;230.88;98.78;;;;;;;;;;5017308;28;20042;-74
2022/03/17 00:33:58;;;;;;;251.65;102.00;;;;;;;;;;5015574;28;20284;-75
2022/03/17 00:36:25;;;;;;;237.02;98.03;;;;;;;;;;5019314;28;20026;-74
2022/03/17 00:38:52;;;;;;;229.15;102.30;;;;;;;;;;5030886;28;20072;-75
2022/03/17 00:41:18;;;;;;;231.05;100.70;;;;;;;;;;5031116;28;20041;-75
2022/03/17 00:43:44;;;;;;;232.93;97.22;;;;;;;;;;5026658;28;20033;-75
2022/03/17 00:46:11;;;;;;;246.13;103.03;;;;;;;;;;5025856;28;20033;-75
2022/03/17 00:48:37;;;;;;;249.25;99.18;;;;;;;;;;5025286;28;20113;-75
2022/03/17 00:51:03;;;;;;;241.07;101.10;;;;;;;;;;5028186;28;20037;-75
2022/03/17 00:53:29;;;;;;;227.80;97.55;;;;;;;;;;5024770;28;20030;-75
2022/03/17 00:55:56;;;;;;;225.80;96.43;;;;;;;;;;5030432;28;20037;-75
2022/03/17 00:58:22;;;;;;;222.55;96.15;;;;;;;;;;5029031;28;20032;-76
2022/03/17 01:00:49;;;;;;;224.18;98.30;;;;;;;;;;5019650;28;20030;-75
2022/03/17 01:03:15;;;;;;;224.80;98.88;;;;;;;;;;5030506;28;20400;-75
2022/03/17 01:05:41;;;;;;;225.65;95.97;;;;;;;;;;5028707;28;20029;-74
2022/03/17 01:08:08;;;;;;;235.38;97.93;;;;;;;;;;5024853;28;20475;-75
2022/03/17 01:10:35;;;;;;;247.23;102.05;;;;;;;;;;5026980;28;20072;-75
2022/03/17 01:13:04;;;;;;;218.10;95.63;;;;;;;;;;5030739;28;20101;-76
2022/03/17 01:15:30;;;;;;;233.30;96.07;;;;;;;;;;5029460;28;20033;-75
2022/03/17 01:17:57;;;;;;;233.73;104.78;;;;;;;;;;5032730;28;20034;-76
2022/03/17 01:20:23;;;;;;;242.35;103.78;;;;;;;;;;5035652;28;20029;-76
2022/03/17 01:22:49;;;;;;;239.85;105.60;;;;;;;;;;5029355;28;20381;-76
2022/03/17 01:25:15;;;;;;;240.13;104.78;;;;;;;;;;5031996;28;20033;-76
2022/03/17 01:27:42;;;;;;;279.02;116.43;;;;;;;;;;5034481;28;20071;-75
2022/03/17 01:30:09;;;;;;;286.80;129.85;;;;;;;;;;5031375;28;20033;-75
2022/03/17 01:32:38;;;;;;;261.23;111.55;;;;;;;;;;5013900;28;20549;-76
2022/03/17 01:35:06;;;;;;;263.50;110.55;;;;;;;;;;5017032;28;20121;-74
2022/03/17 01:37:32;;;;;;;274.38;120.80;;;;;;;;;;5023739;28;20384;-74
2022/03/17 01:39:59;;;;;;;257.65;109.93;;;;;;;;;;5027060;28;20071;-77
2022/03/17 01:42:25;;;;;;;285.35;115.40;;;;;;;;;;5020624;28;20041;-75
2022/03/17 01:44:51;;;;;;;243.13;108.32;;;;;;;;;;5023934;28;20037;-76
2022/03/17 01:47:26;;;;;;;283.77;123.22;;;;;;;;;;5025865;28;20496;-75
2022/03/17 01:49:53;;;;;;;264.40;112.32;;;;;;;;;;5028256;28;20046;-75
2022/03/17 01:52:19;;;;;;;257.75;110.95;;;;;;;;;;5025835;28;20021;-75
2022/03/17 01:54:46;;;;;;;294.25;129.93;;;;;;;;;;5027224;28;20037;-74
2022/03/17 01:57:12;;;;;;;305.70;119.00;;;;;;;;;;5028462;28;20403;-75
2022/03/17 01:59:39;;;;;;;302.52;116.70;;;;;;;;;;5026138;28;20345;-76
2022/03/17 02:02:07;;;;;;;309.70;118.93;;;;;;;;;;5023328;28;20026;-76
2022/03/17 02:04:35;;;;;;;313.83;123.82;;;;;;;;;;5026406;28;20075;-75
2022/03/17 02:07:03;;;;;;;359.20;140.75;;;;;;;;;;5021611;28;20487;-75
2022/03/17 02:09:30;;;;;;;323.67;122.03;;;;;;;;;;5027353;28;20033;-76
2022/03/17 02:14:51;;;;;;;312.23;124.05;;;;;;;;;;5032721;28;20059;-76
2022/03/17 02:17:18;;;;;;;354.85;138.15;;;;;;;;;;5031106;28;20124;-75
2022/03/17 02:19:44;;;;;;;286.77;117.95;;;;;;;;;;5028356;28;20033;-75
2022/03/17 02:22:16;;;;;;;316.35;128.57;;;;;;;;;;5031156;28;20037;-76
2022/03/17 02:27:30;;;;;;;297.00;120.00;;;;;;;;;;5033045;28;20044;-75
2022/03/17 02:29:56;;;;;;;333.80;125.20;;;;;;;;;;5023403;28;20029;-75
2022/03/17 02:32:23;;;;;;;318.30;125.63;;;;;;;;;;5030377;28;20808;-74
2022/03/17 02:34:49;;;;;;;296.27;117.95;;;;;;;;;;5029305;28;20052;-75
2022/03/17 02:37:16;;;;;;;319.63;120.95;;;;;;;;;;5025316;28;20025;-76
2022/03/17 02:39:43;;;;;;;293.08;118.18;;;;;;;;;;5026749;28;20052;-75
2022/03/17 02:42:10;;;;;;;293.80;115.38;;;;;;;;;;5025301;28;20488;-76
2022/03/17 02:44:37;;;;;;;298.60;116.95;;;;;;;;;;5027187;28;20025;-76
2022/03/17 02:47:04;;;;;;;277.23;112.95;;;;;;;;;;5025338;28;20030;-76
2022/03/17 02:49:30;;;;;;;261.05;108.68;;;;;;;;;;5025599;28;20112;-76
2022/03/17 02:51:56;;;;;;;288.67;119.18;;;;;;;;;;5017114;28;20029;-76
2022/03/17 02:54:22;;;;;;;287.88;114.22;;;;;;;;;;5012460;28;20041;-76
2022/03/17 02:56:49;;;;;;;303.83;119.38;;;;;;;;;;5019599;28;20061;-75
2022/03/17 02:59:15;;;;;;;295.48;116.65;;;;;;;;;;5025241;28;20140;-76
2022/03/17 03:01:41;;;;;;;297.30;118.43;;;;;;;;;;5024638;28;20044;-77
2022/03/17 03:04:07;;;;;;;290.52;119.68;;;;;;;;;;5024885;28;20609;-77
2022/03/17 03:06:34;;;;;;;290.15;119.55;;;;;;;;;;5026569;28;20057;-75
2022/03/17 03:09:00;;;;;;;290.33;117.18;;;;;;;;;;5019028;28;20029;-76
2022/03/17 03:11:26;;;;;;;309.08;121.75;;;;;;;;;;5017798;28;20417;-75
2022/03/17 03:13:53;;;;;;;279.88;115.93;;;;;;;;;;5015513;28;20067;-76
2022/03/17 03:16:22;;;;;;;309.30;125.32;;;;;;;;;;5015554;28;20348;-75
2022/03/17 03:18:48;;;;;;;339.98;128.85;;;;;;;;;;5017778;28;20250;-74
2022/03/17 03:21:15;;;;;;;324.02;125.93;;;;;;;;;;5012347;28;20045;-75
2022/03/17 03:23:53;;;;;;;324.33;122.00;;;;;;;;;;5013922;28;20475;-74
2022/03/17 03:26:20;;;;;;;311.77;122.35;;;;;;;;;;5014943;28;20530;-74
2022/03/17 03:28:46;;;;;;;302.38;114.72;;;;;;;;;;5018991;28;20026;-73
2022/03/17 03:31:12;;;;;;;254.80;108.80;;;;;;;;;;5014030;28;20033;-75
2022/03/17 03:33:39;;;;;;;253.70;103.00;;;;;;;;;;5021756;28;20774;-76
2022/03/17 03:38:50;;;;;;;195.60;88.95;;;;;;;;;;5018061;28;20045;-75
2022/03/17 03:41:17;;;;;;;206.77;92.97;;;;;;;;;;5020210;28;20033;-77
2022/03/17 03:43:43;;;;;;;209.32;92.78;;;;;;;;;;5019068;28;20376;-74
2022/03/17 03:46:10;;;;;;;214.40;92.70;;;;;;;;;;5019654;28;20084;-74
2022/03/17 03:48:37;;;;;;;215.50;93.53;;;;;;;;;;5019689;28;20032;-74
2022/03/17 03:51:04;;;;;;;179.15;87.50;;;;;;;;;;5021932;28;20060;-75
2022/03/17 03:54:13;;;;;;;238.15;99.65;;;;;;;;;;5026000;28;20026;-75
2022/03/17 03:56:16;;;;;;;227.82;100.32;;;;;;;;;;5019634;28;20042;-75
2022/03/17 03:58:43;;;;;;;234.70;101.43;;;;;;;;;;5024664;28;20124;-74
2022/03/17 04:01:12;;;;;;;229.50;98.15;;;;;;;;;;5027335;28;20053;-75
2022/03/17 04:03:42;;;;;;;211.10;95.03;;;;;;;;;;5026536;28;20389;-77
2022/03/17 04:06:08;;;;;;;228.27;100.53;;;;;;;;;;5021393;28;20479;-77
2022/03/17 04:08:35;;;;;;;224.85;99.60;;;;;;;;;;5031835;28;20084;-77
2022/03/17 04:11:01;;;;;;;220.90;92.90;;;;;;;;;;5026102;28;20033;-77
2022/03/17 04:13:27;;;;;;;256.67;101.38;;;;;;;;;;5024611;28;20103;-75
2022/03/17 04:15:54;;;;;;;211.93;97.07;;;;;;;;;;5023387;28;20044;-76
2022/03/17 04:18:20;;;;;;;237.52;99.03;;;;;;;;;;5021217;28;20021;-76
2022/03/17 04:20:46;;;;;;;234.57;99.28;;;;;;;;;;5023407;28;20030;-75
2022/03/17 04:23:13;;;;;;;231.80;102.80;;;;;;;;;;5025163;28;20069;-76
2022/03/17 04:25:39;;;;;;;208.73;99.25;;;;;;;;;;5023369;28;20037;-74
2022/03/17 04:28:05;;;;;;;196.52;94.22;;;;;;;;;;5024556;28;20026;-76
2022/03/17 04:30:33;;;;;;;218.93;99.95;;;;;;;;;;5023661;28;20563;-77
2022/03/17 04:32:59;;;;;;;223.68;102.00;;;;;;;;;;5024334;28;20197;-76
2022/03/17 04:35:28;;;;;;;227.52;104.53;;;;;;;;;;5025259;28;20541;-75
2022/03/17 04:37:55;;;;;;;244.10;102.65;;;;;;;;;;5023709;28;20037;-76
2022/03/17 04:40:21;;;;;;;233.05;103.50;;;;;;;;;;5027943;28;20029;-75
2022/03/17 04:42:47;;;;;;;240.27;104.18;;;;;;;;;;5027523;28;20025;-77
2022/03/17 04:45:19;;;;;;;221.07;99.10;;;;;;;;;;5026490;28;20471;-76
2022/03/17 04:47:46;;;;;;;243.40;105.05;;;;;;;;;;5021753;28;21198;-77
2022/03/17 04:50:12;;;;;;;224.90;107.47;;;;;;;;;;5024753;28;20040;-77
2022/03/17 04:55:23;;;;;;;232.27;110.88;;;;;;;;;;5029626;28;20072;-76
2022/03/17 04:57:51;;;;;;;320.25;131.77;;;;;;;;;;5025512;28;20603;-76
2022/03/17 05:00:17;;;;;;;306.45;131.25;;;;;;;;;;5025426;28;20026;-76
2022/03/17 05:02:43;;;;;;;325.13;132.07;;;;;;;;;;5027811;28;20075;-77
2022/03/17 05:05:10;;;;;;;294.23;122.38;;;;;;;;;;5027090;28;20484;-76
2022/03/17 05:07:36;;;;;;;283.17;127.75;;;;;;;;;;5027805;28;20092;-76
2022/03/17 05:10:02;;;;;;;305.35;130.35;;;;;;;;;;5022765;28;20109;-76
2022/03/17 05:12:28;;;;;;;286.48;125.28;;;;;;;;;;5027985;28;20033;-77
2022/03/17 05:14:55;;;;;;;283.85;128.23;;;;;;;;;;5026598;28;20025;-77
2022/03/17 05:17:47;;;;;;;305.15;131.90;;;;;;;;;;5025567;28;20033;-76
2022/03/17 05:20:43;;;;;;;;;;;;;;;;;;;;;
2022/03/17 05:23:33;;;;;;;345.50;143.27;;;;;;;;;;5018717;28;20052;-75
2022/03/17 05:26:19;;;;;;;;;;;;;;;;;;;;;
2022/03/17 05:28:59;;;;;;;342.17;136.98;;;;;;;;;;5022225;28;20159;-76
2022/03/17 05:32:04;;;;;;;359.02;141.70;;;;;;;;;;5022833;28;20033;-76
2022/03/17 05:34:34;;;;;;;305.70;128.73;;;;;;;;;;5020353;28;20042;-76
2022/03/17 05:37:21;;;;;;;294.75;120.43;;;;;;;;;;5024323;28;20425;-77
2022/03/17 05:40:13;;;;;;;336.10;131.85;;;;;;;;;;5023847;28;20033;-76
2022/03/17 05:42:49;;;;;;;338.38;134.48;;;;;;;;;;5025534;28;20025;-75
2022/03/17 05:45:21;;;;;;;308.80;133.23;;;;;;;;;;5021191;28;20068;-76
2022/03/17 05:47:52;;;;;;;277.55;124.43;;;;;;;;;;5023297;28;20025;-76
2022/03/17 05:50:47;;;;;;;312.75;139.43;;;;;;;;;;5020409;28;20069;-75
2022/03/17 05:53:21;;;;;;;313.65;134.77;;;;;;;;;;5022317;28;20068;-75
2022/03/17 05:55:48;;;;;;;296.48;133.30;;;;;;;;;;5024341;28;20025;-75
2022/03/17 05:58:27;;;;;;;310.25;132.90;;;;;;;;;;5027098;28;20029;-75
2022/03/17 06:00:58;;;;;;;248.27;117.15;;;;;;;;;;5025611;28;20389;-75
2022/03/17 06:03:27;;;;;;;302.48;131.15;;;;;;;;;;5022605;28;20435;-75
2022/03/17 06:06:16;;;;;;;;;;;;;;;;;;;;;
2022/03/17 06:08:59;;;;;;;283.42;122.40;;;;;;;;;;5003126;28;20046;-77
2022/03/17 06:11:28;;;;;;;278.33;122.25;;;;;;;;;;5009041;28;20030;-76
2022/03/17 06:13:59;;;;;;;304.98;141.18;;;;;;;;;;5005776;28;20116;-76
2022/03/17 06:16:43;;;;;;;328.80;161.00;;;;;;;;;;5005088;28;20026;-76
2022/03/17 06:19:13;;;;;;;291.00;135.95;;;;;;;;;;5007010;28;20042;-76
2022/03/17 06:21:49;;;;;;;323.70;142.38;;;;;;;;;;5005987;28;20038;-76
2022/03/17 06:24:19;;;;;;;304.08;134.38;;;;;;;;;;5008124;28;20062;-76
2022/03/17 06:26:50;;;;;;;317.08;143.82;;;;;;;;;;5005533;28;20030;-76
2022/03/17 06:29:22;;;;;;;338.38;146.13;;;;;;;;;;5004822;28;20492;-77
2022/03/17 06:31:51;;;;;;;326.92;137.48;;;;;;;;;;5008462;28;20026;-77
2022/03/17 06:34:29;;;;;;;314.55;131.93;;;;;;;;;;5005775;28;20041;-74
2022/03/17 06:37:04;;;;;;;325.25;141.40;;;;;;;;;;5005000;28;20116;-74
2022/03/17 06:39:37;;;;;;;288.30;135.15;;;;;;;;;;5003973;28;20041;-74
2022/03/17 06:42:12;;;;;;;338.65;142.57;;;;;;;;;;5006959;28;20034;-74
2022/03/17 06:44:49;;;;;;;321.83;147.02;;;;;;;;;;5005752;28;20026;-76
2022/03/17 06:50:28;;;;;;;321.05;141.70;;;;;;;;;;5004869;28;20484;-75
2022/03/17 06:55:56;;;;;;;268.95;135.95;;;;;;;;;;4990108;28;20026;-77
2022/03/17 06:58:25;;;;;;;278.98;130.73;;;;;;;;;;5000690;28;20031;-76
2022/03/17 07:01:03;;;;;;;257.60;125.88;;;;;;;;;;4983446;28;20034;-76
2022/03/17 07:03:32;;;;;;;273.60;136.77;;;;;;;;;;5005924;28;20052;-76
2022/03/17 07:05:58;;;;;;;265.85;130.00;;;;;;;;;;5022341;28;20036;-76
2022/03/17 07:08:32;;;;;;;268.33;126.10;;;;;;;;;;5024059;28;20069;-75
2022/03/17 07:11:18;;;;;;;267.52;134.88;;;;;;;;;;5024961;28;20094;-75
2022/03/17 07:13:57;;;;;;;227.80;120.18;;;;;;;;;;5024437;28;20407;-76
2022/03/17 07:16:39;;;;;;;283.90;132.75;;;;;;;;;;5020470;28;20029;-76
2022/03/17 07:19:08;;;;;;;218.55;119.35;;;;;;;;;;5024468;28;20113;-76
2022/03/17 07:21:54;;;;;;;226.48;119.07;;;;;;;;;;5024464;28;20068;-76
2022/03/17 07:24:40;;;;;;;229.85;124.38;;;;;;;;;;5029092;28;20041;-76
2022/03/17 07:27:32;;;;;;;238.32;122.70;;;;;;;;;;5024238;28;20072;-77
2022/03/17 07:30:26;;;;;;;294.33;135.43;;;;;;;;;;5022062;28;20041;-75
2022/03/17 07:32:59;;;;;;;283.27;139.68;;;;;;;;;;5017679;28;20499;-75
2022/03/17 07:36:56;;;;;;;274.33;133.85;;;;;;;;;;5024121;28;20640;-76
2022/03/17 07:38:47;;;;;;;259.02;134.13;;;;;;;;;;5008595;28;20061;-75
2022/03/17 07:41:20;;;;;;;275.35;136.32;;;;;;;;;;5022011;28;20399;-75
2022/03/17 07:44:10;;;;;;;270.40;148.13;;;;;;;;;;5020334;28;20064;-74
2022/03/17 07:46:37;;;;;;;270.55;147.05;;;;;;;;;;5024033;28;20067;-75
2022/03/17 07:49:23;;;;;;;237.82;128.98;;;;;;;;;;5021306;28;20022;-76
2022/03/17 07:54:55;;;;;;;263.40;140.40;;;;;;;;;;5020774;28;20029;-75
2022/03/17 07:57:39;;;;;;;252.40;136.85;;;;;;;;;;5024450;28;20641;-76
2022/03/17 08:00:07;;;;;;;226.80;127.10;;;;;;;;;;5023733;28;20041;-76
2022/03/17 08:02:36;;;;;;;229.68;134.82;;;;;;;;;;5020423;28;20502;-76
2022/03/17 08:05:05;;;;;;;234.23;125.13;;;;;;;;;;5025394;28;20646;-76
2022/03/17 08:07:40;;;;;;;250.82;136.73;;;;;;;;;;5024697;28;20022;-76
2022/03/17 08:10:20;;;;;;;222.88;128.35;;;;;;;;;;5024608;28;20029;-75
2022/03/17 08:12:50;;;;;;;253.95;144.50;;;;;;;;;;5018407;28;20044;-77
2022/03/17 08:15:25;;;;;;;228.65;136.90;;;;;;;;;;5021563;28;20025;-75
2022/03/17 08:20:49;;;;;;;221.90;126.50;;;;;;;;;;5024068;28;20043;-75
2022/03/17 08:23:23;;;;;;;220.27;127.78;;;;;;;;;;5020521;28;20033;-76
2022/03/17 08:25:50;;;;;;;198.35;121.45;;;;;;;;;;5023255;28;20163;-76
2022/03/17 08:28:20;;;;;;;210.40;126.78;;;;;;;;;;5024171;28;20024;-76
2022/03/17 08:30:47;;;;;;;194.93;116.63;;;;;;;;;;5024259;28;20025;-76
2022/03/17 08:33:14;;;;;;;202.93;120.72;;;;;;;;;;5020083;28;20055;-76
2022/03/17 08:35:40;;;;;;;199.73;114.50;;;;;;;;;;5022417;28;20025;-77
2022/03/17 08:38:07;;;;;;;180.32;107.43;;;;;;;;;;5027095;28;20031;-77
2022/03/17 08:40:34;;;;;;;185.20;110.45;;;;;;;;;;5020741;28;20042;-77
2022/03/17 08:43:01;;;;;;;177.35;106.93;;;;;;;;;;5021661;28;20041;-76
2022/03/17 08:50:57;;;;;;;187.68;116.03;;;;;;;;;;5023252;28;20051;-77
2022/03/17 08:53:23;;;;;;;183.77;116.28;;;;;;;;;;5025721;28;20025;-77
2022/03/17 08:55:49;;;;;;;171.88;111.32;;;;;;;;;;5021401;28;20415;-77
2022/03/17 08:58:16;;;;;;;201.98;123.35;;;;;;;;;;5022008;28;20041;-77
2022/03/17 09:00:42;;;;;;;178.32;114.35;;;;;;;;;;5022419;28;20033;-78
2022/03/17 09:03:09;;;;;;;180.82;119.40;;;;;;;;;;5022888;28;20049;-78
2022/03/17 09:05:35;;;;;;;194.63;121.35;;;;;;;;;;5023826;28;20055;-79
2022/03/17 09:08:04;;;;;;;196.07;119.28;;;;;;;;;;5023811;28;20031;-78
2022/03/17 09:10:31;;;;;;;186.57;116.55;;;;;;;;;;5021219;28;20323;-78
2022/03/17 09:12:59;;;;;;;184.75;113.18;;;;;;;;;;5023488;28;20060;-77
2022/03/17 09:15:30;;;;;;;175.82;107.47;;;;;;;;;;5019511;28;20030;-77
2022/03/17 09:17:57;;;;;;;173.98;106.65;;;;;;;;;;5017257;28;20521;-77
2022/03/17 09:20:23;;;;;;;179.57;108.25;;;;;;;;;;5020039;28;20061;-77
2022/03/17 09:22:49;;;;;;;187.25;116.65;;;;;;;;;;5017495;28;20072;-77
2022/03/17 09:25:23;;;;;;;191.13;116.45;;;;;;;;;;5020700;28;20121;-78
2022/03/17 09:27:53;;;;;;;213.80;127.93;;;;;;;;;;5022501;28;20033;-78
2022/03/17 09:30:23;;;;;;;203.50;124.40;;;;;;;;;;5024723;28;20031;-77
2022/03/17 09:32:52;;;;;;;212.95;136.43;;;;;;;;;;5023915;28;20027;-76
2022/03/17 09:35:19;;;;;;;210.80;135.93;;;;;;;;;;5025851;28;20545;-77
2022/03/17 09:37:45;;;;;;;202.60;125.00;;;;;;;;;;5022226;28;20042;-78
2022/03/17 09:40:12;;;;;;;196.30;122.53;;;;;;;;;;5022224;28;20100;-77
2022/03/17 09:42:38;;;;;;;197.45;127.00;;;;;;;;;;5022885;28;20376;-77
2022/03/17 09:45:06;;;;;;;174.13;109.60;;;;;;;;;;5020732;28;20432;-75
2022/03/17 09:47:36;;;;;;;166.57;109.90;;;;;;;;;;5025841;28;20120;-78
2022/03/17 09:50:04;;;;;;;176.85;110.88;;;;;;;;;;5021163;28;20029;-77
2022/03/17 09:52:31;;;;;;;164.77;104.65;;;;;;;;;;5021498;28;20530;-77
2022/03/17 09:54:58;;;;;;;153.60;97.97;;;;;;;;;;5022677;28;20083;-78
2022/03/17 09:57:24;;;;;;;136.88;89.55;;;;;;;;;;5024221;28;20446;-77
2022/03/17 09:59:57;;;;;;;102.82;67.50;;;;;;;;;;5022946;28;20049;-77
2022/03/17 10:02:24;;;;;;;100.28;61.13;;;;;;;;;;5020168;28;20048;-77
2022/03/17 10:04:51;;;;;;;112.13;72.95;;;;;;;;;;5019297;28;20037;-77
2022/03/17 10:07:18;;;;;;;113.90;66.22;;;;;;;;;;5018582;28;20030;-78
2022/03/17 10:09:45;;;;;;;116.95;60.30;;;;;;;;;;5020707;28;20360;-77
2022/03/17 10:12:12;;;;;;;97.50;60.40;;;;;;;;;;5017157;28;20488;-77
2022/03/17 10:14:40;;;;;;;87.38;57.38;;;;;;;;;;5020106;28;21606;-78
2022/03/17 10:17:33;;;;;;;94.82;55.92;;;;;;;;;;5021222;28;20484;-78
2022/03/17 10:20:18;;;;;;;100.57;63.13;;;;;;;;;;5020919;28;20043;-76
2022/03/17 10:22:49;;;;;;;99.10;65.47;;;;;;;;;;5022447;28;20035;-78
2022/03/17 10:25:19;;;;;;;110.20;67.13;;;;;;;;;;5023735;28;20029;-78
2022/03/17 10:27:46;;;;;;;103.20;62.20;;;;;;;;;;5020814;28;20026;-77
2022/03/17 10:30:16;;;;;;;98.53;59.47;;;;;;;;;;5015222;28;20024;-77
2022/03/17 10:32:54;;;;;;;93.30;59.75;;;;;;;;;;5021121;28;20026;-76
2022/03/17 10:35:24;;;;;;;100.07;59.88;;;;;;;;;;5026219;28;20052;-76
2022/03/17 10:37:51;;;;;;;95.45;56.05;;;;;;;;;;5021355;28;20478;-77
2022/03/17 10:40:18;;;;;;;93.00;58.30;;;;;;;;;;5021070;28;20474;-77
2022/03/17 10:42:44;;;;;;;98.07;58.10;;;;;;;;;;5024247;28;20032;-77
2022/03/17 10:45:10;;;;;;;90.30;54.25;;;;;;;;;;5026393;28;20061;-75
2022/03/17 10:47:38;;;;;;;103.10;56.60;;;;;;;;;;5026181;28;20053;-77
2022/03/17 10:50:07;;;;;;;109.70;64.53;;;;;;;;;;5021446;28;20036;-78
2022/03/17 10:52:48;;;;;;;106.95;64.07;;;;;;;;;;5023427;28;20481;-77
2022/03/17 10:55:15;;;;;;;101.40;60.08;;;;;;;;;;5024998;28;20284;-75
2022/03/17 10:57:41;;;;;;;106.93;62.60;;;;;;;;;;5029378;28;20029;-78
2022/03/17 11:00:19;;;;;;;102.25;56.47;;;;;;;;;;5026312;28;20025;-77
2022/03/17 11:02:48;;;;;;;85.82;50.58;;;;;;;;;;5024490;28;20139;-76
2022/03/17 11:05:14;;;;;;;64.25;41.95;;;;;;;;;;5027980;28;20042;-76
2022/03/17 11:07:41;;;;;;;64.82;38.88;;;;;;;;;;5025985;28;20105;-76
2022/03/17 11:10:07;;;;;;;65.10;40.70;;;;;;;;;;5026087;28;20092;-76
2022/03/17 11:12:37;;;;;;;59.58;38.28;;;;;;;;;;5025327;28;20036;-75
2022/03/17 11:15:03;;;;;;;65.57;39.85;;;;;;;;;;5024088;28;20407;-78
2022/03/17 11:17:37;;;;;;;68.75;39.38;;;;;;;;;;5030174;28;20032;-76
2022/03/17 11:20:05;;;;;;;62.00;37.50;;;;;;;;;;5027325;28;20029;-76
2022/03/17 11:22:33;;;;;;;51.90;32.78;;;;;;;;;;5027779;28;20333;-76
2022/03/17 11:25:19;;;;;;;55.38;32.03;;;;;;;;;;5027123;28;20044;-77
2022/03/17 11:27:46;;;;;;;60.70;33.78;;;;;;;;;;5030223;28;20061;-77
2022/03/17 11:30:14;;;;;;;57.60;33.90;;;;;;;;;;5029262;28;20786;-76
2022/03/17 11:32:49;;;;;;;58.42;36.90;;;;;;;;;;5029427;28;20018;-77
2022/03/17 11:35:19;;;;;;;59.25;35.17;;;;;;;;;;5026255;28;20030;-77
2022/03/17 11:37:46;;;;;;;59.28;37.58;;;;;;;;;;5026659;28;20041;-76
2022/03/17 11:40:14;;;;;;;47.42;30.23;;;;;;;;;;5026608;28;20034;-76
2022/03/17 11:42:42;;;;;;;48.25;30.85;;;;;;;;;;5024177;28;20360;-76
2022/03/17 11:45:15;;;;;;;49.38;30.70;;;;;;;;;;5025124;28;20033;-76
2022/03/17 11:47:53;;;;;;;50.45;34.28;;;;;;;;;;5024816;28;20474;-77
2022/03/17 11:50:32;;;;;;;55.15;32.13;;;;;;;;;;5023541;28;20077;-77
2022/03/17 11:53:03;;;;;;;52.17;31.80;;;;;;;;;;5022955;28;20036;-76
2022/03/17 11:55:42;;;;;;;50.88;29.00;;;;;;;;;;5020400;28;20033;-76
2022/03/17 11:58:33;;;;;;;43.35;26.83;;;;;;;;;;5024233;28;20068;-76
2022/03/17 12:01:03;;;;;;;42.17;26.77;;;;;;;;;;5021981;28;20026;-76
2022/03/17 12:03:30;;;;;;;44.88;25.63;;;;;;;;;;5018872;28;20054;-76
2022/03/17 12:06:25;;;;;;;39.50;25.83;;;;;;;;;;5006202;28;20551;-77
2022/03/17 12:09:01;;;;;;;47.30;26.98;;;;;;;;;;4983332;28;20042;-76
2022/03/17 12:11:50;;;;;;;39.78;24.33;;;;;;;;;;4999087;28;20037;-77
2022/03/17 12:14:22;;;;;;;40.60;26.88;;;;;;;;;;5007679;28;20022;-78
2022/03/17 12:16:56;;;;;;;46.53;28.73;;;;;;;;;;5006313;28;20025;-77
2022/03/17 12:19:30;;;;;;;49.35;31.42;;;;;;;;;;5005844;28;20030;-77
2022/03/17 12:22:02;;;;;;;50.22;31.83;;;;;;;;;;5004832;28;20517;-77
2022/03/17 12:24:46;;;;;;;48.33;30.60;;;;;;;;;;5006323;28;20112;-77
2022/03/17 12:27:12;;;;;;;57.58;34.85;;;;;;;;;;5000091;28;20540;-77
2022/03/17 12:29:39;;;;;;;57.08;36.72;;;;;;;;;;5006406;28;20053;-77
2022/03/17 12:32:14;;;;;;;56.10;34.97;;;;;;;;;;5008150;28;20033;-78
2022/03/17 12:34:43;;;;;;;63.80;39.03;;;;;;;;;;5006064;28;20018;-76
2022/03/17 12:37:10;;;;;;;60.45;37.85;;;;;;;;;;5003940;28;20420;-76
2022/03/17 12:39:36;;;;;;;64.85;40.78;;;;;;;;;;5006647;28;20498;-77
2022/03/17 12:42:13;;;;;;;65.07;40.47;;;;;;;;;;5013753;28;20084;-77
2022/03/17 12:44:47;;;;;;;64.38;40.47;;;;;;;;;;5006613;28;20038;-76
2022/03/17 12:47:14;;;;;;;69.25;41.63;;;;;;;;;;5006364;28;20365;-77
2022/03/17 12:49:41;;;;;;;64.68;42.40;;;;;;;;;;5009444;28;20022;-77
2022/03/17 12:52:18;;;;;;;70.35;43.20;;;;;;;;;;5003547;28;20026;-78
2022/03/17 12:54:45;;;;;;;71.25;43.38;;;;;;;;;;5006403;28;20038;-76
2022/03/17 12:57:11;;;;;;;84.70;47.83;;;;;;;;;;5007424;28;20044;-77
2022/03/17 12:59:37;;;;;;;83.25;48.65;;;;;;;;;;5009885;28;20030;-76
2022/03/17 13:02:06;;;;;;;78.03;49.47;;;;;;;;;;5011415;28;20546;-76
2022/03/17 13:04:35;;;;;;;75.57;46.45;;;;;;;;;;5021414;28;20092;-76
2022/03/17 13:07:02;;;;;;;73.90;49.83;;;;;;;;;;5028200;28;20025;-75
2022/03/17 13:09:28;;;;;;;75.82;48.53;;;;;;;;;;5027246;28;20029;-77
2022/03/17 13:14:48;;;;;;;75.15;51.35;;;;;;;;;;5026201;28;20048;-76
2022/03/17 13:17:16;;;;;;;86.20;52.95;;;;;;;;;;5018249;28;20033;-75
2022/03/17 13:19:46;;;;;;;84.15;49.33;;;;;;;;;;5020641;28;20084;-78
2022/03/17 13:22:13;;;;;;;74.50;45.85;;;;;;;;;;5024863;28;20382;-75
2022/03/17 13:24:39;;;;;;;79.63;50.65;;;;;;;;;;5029722;28;20072;-77
2022/03/17 13:27:06;;;;;;;74.60;45.55;;;;;;;;;;5027872;28;20509;-76
2022/03/17 13:29:35;;;;;;;72.68;45.17;;;;;;;;;;5027091;28;20075;-76
2022/03/17 13:32:02;;;;;;;64.07;44.38;;;;;;;;;;5024061;28;20026;-75
2022/03/17 13:34:29;;;;;;;73.95;46.42;;;;;;;;;;5024149;28;20537;-78
2022/03/17 13:36:56;;;;;;;72.05;44.65;;;;;;;;;;5026938;28;20033;-76
2022/03/17 13:39:36;;;;;;;74.30;46.90;;;;;;;;;;5031392;28;20061;-76
2022/03/17 13:42:05;;;;;;;83.80;51.30;;;;;;;;;;5019590;28;20105;-76
2022/03/17 13:44:44;;;;;;;81.78;51.13;;;;;;;;;;5027003;28;20380;-76
2022/03/17 13:47:21;;;;;;;86.47;56.50;;;;;;;;;;5027547;28;20048;-76
2022/03/17 13:50:27;;;;;;;97.28;59.03;;;;;;;;;;5027582;28;20472;-76
2022/03/17 13:53:06;;;;;;;99.05;60.90;;;;;;;;;;4987364;28;20030;-76
2022/03/17 13:55:55;;;;;;;98.10;60.22;;;;;;;;;;4988501;28;20037;-76
2022/03/17 13:58:21;;;;;;;98.63;62.13;;;;;;;;;;5009331;28;20037;-76
2022/03/17 14:00:49;;;;;;;102.00;65.85;;;;;;;;;;5025565;28;20300;-76
2022/03/17 14:03:17;;;;;;;109.47;66.95;;;;;;;;;;5023780;28;20141;-76
2022/03/17 14:06:01;;;;;;;105.57;66.28;;;;;;;;;;5024801;28;20029;-76
2022/03/17 14:08:28;;;;;;;109.18;67.78;;;;;;;;;;5022380;28;20243;-76
2022/03/17 14:10:56;;;;;;;110.40;70.68;;;;;;;;;;5024121;28;20025;-76
2022/03/17 14:13:22;;;;;;;114.18;69.85;;;;;;;;;;5030294;28;20469;-76
2022/03/17 14:15:52;;;;;;;117.20;72.78;;;;;;;;;;5026111;28;20033;-76
2022/03/17 14:18:18;;;;;;;112.25;73.55;;;;;;;;;;5022080;28;20061;-76
2022/03/17 14:20:45;;;;;;;115.05;72.20;;;;;;;;;;5025790;28;20033;-75
2022/03/17 14:25:57;;;;;;;115.30;73.85;;;;;;;;;;5027295;28;20087;-76
2022/03/17 14:28:23;;;;;;;120.75;75.13;;;;;;;;;;5025487;28;20045;-76
2022/03/17 14:30:50;;;;;;;119.43;73.53;;;;;;;;;;5024079;28;20475;-75
2022/03/17 14:33:16;;;;;;;118.10;76.80;;;;;;;;;;5024031;28;20487;-75
2022/03/17 14:35:43;;;;;;;119.95;76.85;;;;;;;;;;5024985;28;20026;-76
2022/03/17 14:38:09;;;;;;;121.10;77.15;;;;;;;;;;5025407;28;20108;-76
2022/03/17 14:40:36;;;;;;;124.55;78.28;;;;;;;;;;5023023;28;20026;-75
2022/03/17 14:43:03;;;;;;;129.75;81.55;;;;;;;;;;5024471;28;20582;-76
2022/03/17 14:45:30;;;;;;;121.55;81.47;;;;;;;;;;5023839;28;20032;-77
2022/03/17 14:47:56;;;;;;;118.07;79.57;;;;;;;;;;5031310;28;20456;-76
2022/03/17 14:50:22;;;;;;;130.77;83.95;;;;;;;;;;5023899;28;20028;-76
2022/03/17 14:52:49;;;;;;;132.63;86.82;;;;;;;;;;5026790;28;20029;-76
2022/03/17 14:55:15;;;;;;;134.88;87.60;;;;;;;;;;5026024;28;20345;-75
2022/03/17 14:57:41;;;;;;;135.02;86.45;;;;;;;;;;5029866;28;20086;-77